sensor_id;sensor_type;location;lat;lon;timestamp;pressure;altitude;pressure_sealevel;temperature;humidity
38400;BME280;24180;42.676;23.320;2022-12-07T00:01:26;94718.34;;;5.72;100.00
38400;BME280;24180;42.676;23.320;2022-12-07T00:03:54;94708.41;;;5.67;100.00
38400;BME280;24180;42.676;23.320;2022-12-07T00:06:22;94684.47;;;5.55;100.00
38400;BME280;24180;42.676;23.320;2022-12-07T00:08:48;94605.03;;;4.97;100.00
38400;BME280;24180;42.676;23.320;2022-12-07T00:11:15;94668.94;;;5.46;100.00
38400;BME280;24180;42.676;23.320;2022-12-07T00:13:41;94711.47;;;5.72;100.00
38400;BME280;24180;42.676;23.320;2022-12-07T00:16:10;94681.66;;;5.58;100.00
38400;BME280;24180;42.676;23.320;2022-12-07T00:18:37;94704.44;;;5.74;100.00
38400;BME280;24180;42.676;23.320;2022-12-07T00:21:04;94697.69;;;5.73;100.00
38400;BME280;24180;42.676;23.320;2022-12-07T00:23:30;94660.44;;;5.45;100.00
38400;BME280;24180;42.676;23.320;2022-12-07T00:25:56;94711.56;;;5.71;100.00
38400;BME280;24180;42.676;23.320;2022-12-07T00:28:21;94692.91;;;5.57;100.00
38400;BME280;24180;42.676;23.320;2022-12-07T00:30:47;94681.91;;;5.55;100.00
38400;BME280;24180;42.676;23.320;2022-12-07T00:33:12;94702.94;;;5.72;100.00
38400;BME280;24180;42.676;23.320;2022-12-07T00:35:37;94702.81;;;5.62;100.00
38400;BME280;24180;42.676;23.320;2022-12-07T00:38:03;94709.25;;;5.68;100.00
38400;BME280;24180;42.676;23.320;2022-12-07T00:40:28;94705.75;;;5.69;100.00
38400;BME280;24180;42.676;23.320;2022-12-07T00:42:54;94709.13;;;5.69;100.00
38400;BME280;24180;42.676;23.320;2022-12-07T00:45:19;94699.88;;;5.66;100.00
38400;BME280;24180;42.676;23.320;2022-12-07T00:47:44;94708.31;;;5.69;100.00
38400;BME280;24180;42.676;23.320;2022-12-07T00:50:10;94703.41;;;5.65;100.00
38400;BME280;24180;42.676;23.320;2022-12-07T00:52:35;94687.53;;;5.60;100.00
38400;BME280;24180;42.676;23.320;2022-12-07T00:55:01;94706.19;;;5.62;100.00
38400;BME280;24180;42.676;23.320;2022-12-07T00:57:27;94702.47;;;5.66;100.00
38400;BME280;24180;42.676;23.320;2022-12-07T00:59:53;94653.16;;;5.39;100.00
38400;BME280;24180;42.676;23.320;2022-12-07T01:02:22;94689.38;;;5.58;100.00
38400;BME280;24180;42.676;23.320;2022-12-07T01:04:48;94669.53;;;5.49;100.00
38400;BME280;24180;42.676;23.320;2022-12-07T01:07:13;94687.03;;;5.44;100.00
38400;BME280;24180;42.676;23.320;2022-12-07T01:09:39;94678.19;;;5.59;100.00
38400;BME280;24180;42.676;23.320;2022-12-07T01:12:04;94675.94;;;5.55;100.00
38400;BME280;24180;42.676;23.320;2022-12-07T01:14:30;94667.91;;;5.48;100.00
38400;BME280;24180;42.676;23.320;2022-12-07T01:16:55;94696.16;;;5.71;100.00
38400;BME280;24180;42.676;23.320;2022-12-07T01:19:20;94662.53;;;5.51;100.00
38400;BME280;24180;42.676;23.320;2022-12-07T01:21:46;94654.22;;;5.37;100.00
38400;BME280;24180;42.676;23.320;2022-12-07T01:24:11;94689.38;;;5.58;100.00
38400;BME280;24180;42.676;23.320;2022-12-07T01:26:37;94666.97;;;5.49;100.00
38400;BME280;24180;42.676;23.320;2022-12-07T01:29:02;94646.97;;;5.42;100.00
38400;BME280;24180;42.676;23.320;2022-12-07T01:31:28;94678.50;;;5.44;100.00
38400;BME280;24180;42.676;23.320;2022-12-07T01:33:56;94678.66;;;5.53;100.00
38400;BME280;24180;42.676;23.320;2022-12-07T01:36:30;94674.88;;;5.46;100.00
38400;BME280;24180;42.676;23.320;2022-12-07T01:39:02;94682.59;;;5.46;100.00
38400;BME280;24180;42.676;23.320;2022-12-07T01:41:31;94673.84;;;5.49;100.00
38400;BME280;24180;42.676;23.320;2022-12-07T01:46:55;94637.19;;;5.25;100.00
38400;BME280;24180;42.676;23.320;2022-12-07T01:49:23;94684.47;;;5.44;100.00
38400;BME280;24180;42.676;23.320;2022-12-07T01:51:52;94669.59;;;5.26;100.00
38400;BME280;24180;42.676;23.320;2022-12-07T01:54:19;94655.97;;;5.36;100.00
38400;BME280;24180;42.676;23.320;2022-12-07T01:56:50;94637.28;;;5.23;100.00
38400;BME280;24180;42.676;23.320;2022-12-07T01:59:18;94662.38;;;5.31;100.00
38400;BME280;24180;42.676;23.320;2022-12-07T02:01:46;94624.28;;;5.02;100.00
38400;BME280;24180;42.676;23.320;2022-12-07T02:04:12;94618.56;;;5.10;100.00
38400;BME280;24180;42.676;23.320;2022-12-07T02:06:37;94577.50;;;4.99;100.00
38400;BME280;24180;42.676;23.320;2022-12-07T02:09:04;94646.19;;;5.41;100.00
38400;BME280;24180;42.676;23.320;2022-12-07T02:11:29;94630.31;;;5.36;100.00
38400;BME280;24180;42.676;23.320;2022-12-07T02:13:55;94663.09;;;5.55;100.00
38400;BME280;24180;42.676;23.320;2022-12-07T02:16:44;94627.38;;;5.41;100.00
38400;BME280;24180;42.676;23.320;2022-12-07T02:22:01;94665.56;;;5.68;100.00
38400;BME280;24180;42.676;23.320;2022-12-07T02:32:21;94641.16;;;5.62;100.00
38400;BME280;24180;42.676;23.320;2022-12-07T02:35:18;94638.47;;;5.63;100.00
38400;BME280;24180;42.676;23.320;2022-12-07T02:40:38;94655.75;;;5.50;100.00
38400;BME280;24180;42.676;23.320;2022-12-07T02:43:26;94639.03;;;5.34;100.00
38400;BME280;24180;42.676;23.320;2022-12-07T02:46:02;94651.03;;;5.22;100.00
38400;BME280;24180;42.676;23.320;2022-12-07T02:48:31;94567.09;;;4.78;100.00
38400;BME280;24180;42.676;23.320;2022-12-07T02:50:57;94609.03;;;5.01;100.00
38400;BME280;24180;42.676;23.320;2022-12-07T02:53:42;94608.34;;;4.75;100.00
38400;BME280;24180;42.676;23.320;2022-12-07T02:56:38;94639.22;;;4.97;100.00
38400;BME280;24180;42.676;23.320;2022-12-07T03:04:16;94625.56;;;4.97;100.00
38400;BME280;24180;42.676;23.320;2022-12-07T03:06:53;94599.84;;;4.75;100.00
38400;BME280;24180;42.676;23.320;2022-12-07T03:09:33;94585.13;;;4.65;100.00
38400;BME280;24180;42.676;23.320;2022-12-07T03:12:20;94612.09;;;4.82;100.00
38400;BME280;24180;42.676;23.320;2022-12-07T03:14:52;94578.25;;;4.66;100.00
38400;BME280;24180;42.676;23.320;2022-12-07T03:17:31;94577.44;;;4.65;100.00
38400;BME280;24180;42.676;23.320;2022-12-07T03:20:02;94606.38;;;4.79;100.00
38400;BME280;24180;42.676;23.320;2022-12-07T03:22:31;94567.53;;;4.61;100.00
38400;BME280;24180;42.676;23.320;2022-12-07T03:25:03;94614.00;;;4.91;100.00
38400;BME280;24180;42.676;23.320;2022-12-07T03:27:35;94614.81;;;4.92;100.00
38400;BME280;24180;42.676;23.320;2022-12-07T03:30:10;94621.13;;;4.99;100.00
38400;BME280;24180;42.676;23.320;2022-12-07T03:35:15;94627.66;;;4.92;100.00
38400;BME280;24180;42.676;23.320;2022-12-07T03:37:49;94575.75;;;4.53;100.00
38400;BME280;24180;42.676;23.320;2022-12-07T03:43:18;94600.06;;;4.71;100.00
38400;BME280;24180;42.676;23.320;2022-12-07T03:46:01;94600.31;;;4.80;100.00
38400;BME280;24180;42.676;23.320;2022-12-07T03:48:41;94574.88;;;4.65;100.00
38400;BME280;24180;42.676;23.320;2022-12-07T03:57:01;94575.13;;;4.73;100.00
38400;BME280;24180;42.676;23.320;2022-12-07T03:59:28;94607.59;;;4.97;100.00
38400;BME280;24180;42.676;23.320;2022-12-07T04:01:56;94598.84;;;4.99;100.00
38400;BME280;24180;42.676;23.320;2022-12-07T04:04:23;94607.13;;;5.03;100.00
38400;BME280;24180;42.676;23.320;2022-12-07T04:06:49;94574.22;;;4.86;100.00
38400;BME280;24180;42.676;23.320;2022-12-07T04:09:15;94595.22;;;5.02;100.00
38400;BME280;24180;42.676;23.320;2022-12-07T04:11:41;94582.16;;;4.94;100.00
38400;BME280;24180;42.676;23.320;2022-12-07T04:14:07;94574.09;;;4.87;100.00
38400;BME280;24180;42.676;23.320;2022-12-07T04:17:03;94565.72;;;4.85;100.00
38400;BME280;24180;42.676;23.320;2022-12-07T04:19:30;94609.59;;;5.04;100.00
38400;BME280;24180;42.676;23.320;2022-12-07T04:21:58;94557.28;;;4.72;100.00
38400;BME280;24180;42.676;23.320;2022-12-07T04:24:24;94591.59;;;4.82;100.00
38400;BME280;24180;42.676;23.320;2022-12-07T04:26:50;94598.25;;;4.85;100.00
38400;BME280;24180;42.676;23.320;2022-12-07T04:29:16;94571.88;;;4.71;100.00
38400;BME280;24180;42.676;23.320;2022-12-07T04:31:42;94602.44;;;4.86;100.00
38400;BME280;24180;42.676;23.320;2022-12-07T04:34:08;94590.25;;;4.65;100.00
38400;BME280;24180;42.676;23.320;2022-12-07T04:36:34;94612.09;;;4.82;100.00
38400;BME280;24180;42.676;23.320;2022-12-07T04:39:00;94593.31;;;4.70;100.00
38400;BME280;24180;42.676;23.320;2022-12-07T04:41:26;94603.84;;;4.55;100.00
38400;BME280;24180;42.676;23.320;2022-12-07T04:43:59;94603.38;;;4.50;100.00
38400;BME280;24180;42.676;23.320;2022-12-07T04:46:26;94618.00;;;4.60;100.00
38400;BME280;24180;42.676;23.320;2022-12-07T04:48:53;94618.34;;;4.67;100.00
38400;BME280;24180;42.676;23.320;2022-12-07T04:51:22;94623.31;;;4.57;100.00
38400;BME280;24180;42.676;23.320;2022-12-07T04:53:48;94617.88;;;4.38;100.00
38400;BME280;24180;42.676;23.320;2022-12-07T04:56:15;94600.72;;;4.28;100.00
38400;BME280;24180;42.676;23.320;2022-12-07T04:58:42;94582.28;;;4.22;100.00
38400;BME280;24180;42.676;23.320;2022-12-07T05:01:08;94617.47;;;4.44;100.00
38400;BME280;24180;42.676;23.320;2022-12-07T05:03:34;94619.31;;;4.42;100.00
38400;BME280;24180;42.676;23.320;2022-12-07T05:05:59;94607.63;;;4.38;100.00
38400;BME280;24180;42.676;23.320;2022-12-07T05:08:24;94596.19;;;4.31;100.00
38400;BME280;24180;42.676;23.320;2022-12-07T05:10:50;94617.88;;;4.38;100.00
38400;BME280;24180;42.676;23.320;2022-12-07T05:13:15;94615.13;;;4.41;100.00
38400;BME280;24180;42.676;23.320;2022-12-07T05:15:41;94619.97;;;4.57;100.00
38400;BME280;24180;42.676;23.320;2022-12-07T05:18:09;94622.75;;;4.30;100.00
38400;BME280;24180;42.676;23.320;2022-12-07T05:20:35;94615.06;;;4.30;100.00
38400;BME280;24180;42.676;23.320;2022-12-07T05:23:00;94590.88;;;4.21;100.00
38400;BME280;24180;42.676;23.320;2022-12-07T05:25:26;94611.78;;;4.28;100.00
38400;BME280;24180;42.676;23.320;2022-12-07T05:27:51;94612.06;;;4.36;100.00
38400;BME280;24180;42.676;23.320;2022-12-07T05:30:16;94594.13;;;4.36;100.00
38400;BME280;24180;42.676;23.320;2022-12-07T05:32:42;94618.09;;;4.59;100.00
38400;BME280;24180;42.676;23.320;2022-12-07T05:35:08;94619.78;;;4.47;100.00
38400;BME280;24180;42.676;23.320;2022-12-07T05:37:33;94612.94;;;4.48;100.00
38400;BME280;24180;42.676;23.320;2022-12-07T05:39:59;94596.47;;;4.39;100.00
38400;BME280;24180;42.676;23.320;2022-12-07T05:42:24;94582.56;;;4.31;100.00
38400;BME280;24180;42.676;23.320;2022-12-07T05:44:49;94615.75;;;4.56;100.00
38400;BME280;24180;42.676;23.320;2022-12-07T05:47:16;94571.88;;;4.37;100.00
38400;BME280;24180;42.676;23.320;2022-12-07T05:49:41;94588.97;;;4.60;100.00
38400;BME280;24180;42.676;23.320;2022-12-07T05:52:07;94516.31;;;4.13;100.00
38400;BME280;24180;42.676;23.320;2022-12-07T05:54:33;94591.28;;;4.63;100.00
38400;BME280;24180;42.676;23.320;2022-12-07T05:56:59;94580.69;;;4.56;100.00
38400;BME280;24180;42.676;23.320;2022-12-07T05:59:24;94579.97;;;4.54;100.00
38400;BME280;24180;42.676;23.320;2022-12-07T06:01:52;94604.38;;;4.71;100.00
38400;BME280;24180;42.676;23.320;2022-12-07T06:04:18;94571.56;;;4.52;100.00
38400;BME280;24180;42.676;23.320;2022-12-07T06:06:44;94595.38;;;4.65;100.00
38400;BME280;24180;42.676;23.320;2022-12-07T06:09:09;94567.59;;;4.48;100.00
38400;BME280;24180;42.676;23.320;2022-12-07T06:11:35;94588.84;;;4.61;100.00
38400;BME280;24180;42.676;23.320;2022-12-07T06:14:19;94617.78;;;4.75;100.00
38400;BME280;24180;42.676;23.320;2022-12-07T06:16:45;94608.94;;;4.79;100.00
38400;BME280;24180;42.676;23.320;2022-12-07T06:19:10;94574.06;;;4.65;100.00
38400;BME280;24180;42.676;23.320;2022-12-07T06:21:36;94579.78;;;4.68;100.00
38400;BME280;24180;42.676;23.320;2022-12-07T06:24:01;94586.69;;;4.79;100.00
38400;BME280;24180;42.676;23.320;2022-12-07T06:26:27;94609.44;;;4.84;100.00
38400;BME280;24180;42.676;23.320;2022-12-07T06:28:53;94613.81;;;4.70;100.00
38400;BME280;24180;42.676;23.320;2022-12-07T06:31:18;94590.50;;;4.73;100.00
38400;BME280;24180;42.676;23.320;2022-12-07T06:33:43;94623.78;;;4.86;100.00
38400;BME280;24180;42.676;23.320;2022-12-07T06:36:09;94622.53;;;4.92;100.00
38400;BME280;24180;42.676;23.320;2022-12-07T06:38:35;94627.88;;;4.89;100.00
38400;BME280;24180;42.676;23.320;2022-12-07T06:41:00;94600.34;;;4.91;100.00
38400;BME280;24180;42.676;23.320;2022-12-07T06:43:26;94624.66;;;5.09;100.00
38400;BME280;24180;42.676;23.320;2022-12-07T06:45:52;94599.81;;;5.09;100.00
38400;BME280;24180;42.676;23.320;2022-12-07T06:48:18;94611.34;;;5.04;100.00
38400;BME280;24180;42.676;23.320;2022-12-07T06:50:47;94642.91;;;5.39;100.00
38400;BME280;24180;42.676;23.320;2022-12-07T06:53:13;94597.13;;;5.11;100.00
38400;BME280;24180;42.676;23.320;2022-12-07T06:55:38;94638.94;;;5.35;100.00
38400;BME280;24180;42.676;23.320;2022-12-07T06:58:04;94638.78;;;5.26;100.00
38400;BME280;24180;42.676;23.320;2022-12-07T07:00:29;94642.16;;;5.15;100.00
38400;BME280;24180;42.676;23.320;2022-12-07T07:02:55;94608.53;;;4.96;100.00
38400;BME280;24180;42.676;23.320;2022-12-07T07:05:21;94617.09;;;5.18;100.00
38400;BME280;24180;42.676;23.320;2022-12-07T07:07:50;94617.47;;;5.25;100.00
38400;BME280;24180;42.676;23.320;2022-12-07T07:10:16;94613.50;;;5.21;100.00
38400;BME280;24180;42.676;23.320;2022-12-07T07:12:41;94632.41;;;5.42;100.00
38400;BME280;24180;42.676;23.320;2022-12-07T07:15:07;94648.75;;;5.52;100.00
38400;BME280;24180;42.676;23.320;2022-12-07T07:17:32;94641.63;;;5.67;100.00
38400;BME280;24180;42.676;23.320;2022-12-07T07:19:58;94607.53;;;5.32;100.00
38400;BME280;24180;42.676;23.320;2022-12-07T07:22:23;94629.13;;;5.62;100.00
38400;BME280;24180;42.676;23.320;2022-12-07T07:24:49;94631.84;;;5.61;100.00
38400;BME280;24180;42.676;23.320;2022-12-07T07:27:14;94646.41;;;5.72;100.00
38400;BME280;24180;42.676;23.320;2022-12-07T07:29:40;94610.47;;;5.60;100.00
38400;BME280;24180;42.676;23.320;2022-12-07T07:32:05;94655.66;;;5.85;100.00
38400;BME280;24180;42.676;23.320;2022-12-07T07:34:30;94647.81;;;5.76;100.00
38400;BME280;24180;42.676;23.320;2022-12-07T07:36:56;94651.13;;;5.89;100.00
38400;BME280;24180;42.676;23.320;2022-12-07T07:39:21;94627.75;;;5.81;100.00
38400;BME280;24180;42.676;23.320;2022-12-07T07:41:47;94615.84;;;5.91;100.00
38400;BME280;24180;42.676;23.320;2022-12-07T07:44:13;94615.81;;;5.80;100.00
38400;BME280;24180;42.676;23.320;2022-12-07T07:46:38;94632.19;;;5.68;100.00
38400;BME280;24180;42.676;23.320;2022-12-07T07:49:03;94650.06;;;5.91;100.00
38400;BME280;24180;42.676;23.320;2022-12-07T07:51:29;94647.34;;;6.15;100.00
38400;BME280;24180;42.676;23.320;2022-12-07T07:53:54;94641.97;;;6.18;100.00
38400;BME280;24180;42.676;23.320;2022-12-07T07:56:20;94645.41;;;6.39;100.00
38400;BME280;24180;42.676;23.320;2022-12-07T07:58:45;94650.59;;;6.28;100.00
38400;BME280;24180;42.676;23.320;2022-12-07T08:01:11;94645.91;;;6.22;100.00
38400;BME280;24180;42.676;23.320;2022-12-07T08:03:38;94660.66;;;6.20;100.00
38400;BME280;24180;42.676;23.320;2022-12-07T08:06:05;94645.91;;;6.22;100.00
38400;BME280;24180;42.676;23.320;2022-12-07T08:08:30;94632.84;;;6.25;100.00
38400;BME280;24180;42.676;23.320;2022-12-07T08:10:56;94645.66;;;6.36;100.00
38400;BME280;24180;42.676;23.320;2022-12-07T08:13:21;94612.38;;;6.24;100.00
38400;BME280;24180;42.676;23.320;2022-12-07T08:15:47;94650.09;;;6.45;100.00
38400;BME280;24180;42.676;23.320;2022-12-07T08:18:13;94645.41;;;6.39;100.00
38400;BME280;24180;42.676;23.320;2022-12-07T08:20:40;94618.13;;;6.16;100.00
38400;BME280;24180;42.676;23.320;2022-12-07T08:23:06;94652.31;;;6.39;100.00
38400;BME280;24180;42.676;23.320;2022-12-07T08:25:32;94629.34;;;6.15;100.00
38400;BME280;24180;42.676;23.320;2022-12-07T08:27:58;94649.41;;;6.32;100.00
38400;BME280;24180;42.676;23.320;2022-12-07T08:30:25;94627.84;;;6.13;100.00
38400;BME280;24180;42.676;23.320;2022-12-07T08:32:51;94649.09;;;6.26;100.00
38400;BME280;24180;42.676;23.320;2022-12-07T08:35:16;94652.47;;;6.26;100.00
38400;BME280;24180;42.676;23.320;2022-12-07T08:37:42;94651.34;;;6.08;100.00
38400;BME280;24180;42.676;23.320;2022-12-07T08:40:09;94656.59;;;6.06;100.00
38400;BME280;24180;42.676;23.320;2022-12-07T08:42:35;94614.66;;;5.95;100.00
38400;BME280;24180;42.676;23.320;2022-12-07T08:45:10;94613.03;;;6.05;100.00
38400;BME280;24180;42.676;23.320;2022-12-07T08:47:38;94637.47;;;6.42;100.00
38400;BME280;24180;42.676;23.320;2022-12-07T08:50:07;94633.53;;;6.27;100.00
38400;BME280;24180;42.676;23.320;2022-12-07T08:52:35;94636.09;;;6.27;100.00
38400;BME280;24180;42.676;23.320;2022-12-07T08:55:01;94627.88;;;6.44;100.00
38400;BME280;24180;42.676;23.320;2022-12-07T08:57:27;94632.72;;;6.58;100.00
38400;BME280;24180;42.676;23.320;2022-12-07T08:59:54;94604.22;;;6.62;100.00
38400;BME280;24180;42.676;23.320;2022-12-07T09:02:19;94626.06;;;6.88;100.00
38400;BME280;24180;42.676;23.320;2022-12-07T09:04:45;94637.94;;;7.00;100.00
38400;BME280;24180;42.676;23.320;2022-12-07T09:07:10;94599.06;;;6.82;100.00
38400;BME280;24180;42.676;23.320;2022-12-07T09:09:36;94622.50;;;7.00;100.00
38400;BME280;24180;42.676;23.320;2022-12-07T09:12:02;94632.06;;;7.30;100.00
38400;BME280;24180;42.676;23.320;2022-12-07T09:14:27;94613.47;;;7.57;100.00
38400;BME280;24180;42.676;23.320;2022-12-07T09:16:53;94591.06;;;7.78;100.00
38400;BME280;24180;42.676;23.320;2022-12-07T09:19:18;94593.84;;;7.65;100.00
38400;BME280;24180;42.676;23.320;2022-12-07T09:21:44;94621.34;;;7.95;100.00
38400;BME280;24180;42.676;23.320;2022-12-07T09:24:11;94623.84;;;7.66;100.00
38400;BME280;24180;42.676;23.320;2022-12-07T09:26:37;94620.59;;;7.74;100.00
38400;BME280;24180;42.676;23.320;2022-12-07T09:29:04;94635.59;;;7.89;100.00
38400;BME280;24180;42.676;23.320;2022-12-07T09:31:29;94615.69;;;7.71;100.00
38400;BME280;24180;42.676;23.320;2022-12-07T09:33:56;94590.47;;;7.65;100.00
38400;BME280;24180;42.676;23.320;2022-12-07T09:36:22;94607.69;;;8.04;100.00
38400;BME280;24180;42.676;23.320;2022-12-07T09:38:47;94566.72;;;7.71;100.00
38400;BME280;24180;42.676;23.320;2022-12-07T09:41:12;94569.22;;;7.82;100.00
38400;BME280;24180;42.676;23.320;2022-12-07T09:43:39;94570.38;;;8.08;100.00
38400;BME280;24180;42.676;23.320;2022-12-07T09:46:05;94602.09;;;8.49;100.00
38400;BME280;24180;42.676;23.320;2022-12-07T09:48:34;94590.53;;;8.53;100.00
38400;BME280;24180;42.676;23.320;2022-12-07T09:51:24;94592.47;;;8.70;100.00
38400;BME280;24180;42.676;23.320;2022-12-07T09:53:51;94574.41;;;8.70;100.00
38400;BME280;24180;42.676;23.320;2022-12-07T09:56:18;94598.97;;;8.83;100.00
38400;BME280;24180;42.676;23.320;2022-12-07T09:58:45;94575.84;;;8.91;100.00
38400;BME280;24180;42.676;23.320;2022-12-07T10:01:13;94596.06;;;9.15;100.00
38400;BME280;24180;42.676;23.320;2022-12-07T10:03:44;94576.63;;;9.21;100.00
38400;BME280;24180;42.676;23.320;2022-12-07T10:06:12;94570.94;;;9.17;100.00
38400;BME280;24180;42.676;23.320;2022-12-07T10:08:38;94580.56;;;9.34;100.00
38400;BME280;24180;42.676;23.320;2022-12-07T10:11:03;94587.66;;;9.60;100.00
38400;BME280;24180;42.676;23.320;2022-12-07T10:13:51;94582.75;;;9.66;100.00
38400;BME280;24180;42.676;23.320;2022-12-07T10:18:50;94577.53;;;10.03;100.00
38400;BME280;24180;42.676;23.320;2022-12-07T10:21:17;94574.72;;;10.24;100.00
38400;BME280;24180;42.676;23.320;2022-12-07T10:29:03;94531.72;;;10.13;100.00
38400;BME280;24180;42.676;23.320;2022-12-07T10:31:39;94552.47;;;10.49;100.00
38400;BME280;24180;42.676;23.320;2022-12-07T10:34:20;94546.06;;;10.35;100.00
38400;BME280;24180;42.676;23.320;2022-12-07T10:36:47;94550.91;;;10.20;100.00
38400;BME280;24180;42.676;23.320;2022-12-07T10:39:14;94539.63;;;9.94;100.00
38400;BME280;24180;42.676;23.320;2022-12-07T10:44:24;94513.66;;;9.86;100.00
38400;BME280;24180;42.676;23.320;2022-12-07T11:08:45;94513.44;;;9.97;100.00
38400;BME280;24180;42.676;23.320;2022-12-07T11:11:13;94507.50;;;9.87;100.00
38400;BME280;24180;42.676;23.320;2022-12-07T11:13:52;94477.28;;;9.70;100.00
38400;BME280;24180;42.676;23.320;2022-12-07T11:16:55;94509.31;;;9.86;100.00
38400;BME280;24180;42.676;23.320;2022-12-07T11:19:48;94477.28;;;9.70;100.00
38400;BME280;24180;42.676;23.320;2022-12-07T11:22:40;94505.41;;;10.00;100.00
38400;BME280;24180;42.676;23.320;2022-12-07T11:25:38;94494.16;;;9.92;100.00
38400;BME280;24180;42.676;23.320;2022-12-07T11:36:43;94474.88;;;9.86;100.00
38400;BME280;24180;42.676;23.320;2022-12-07T11:39:26;94456.22;;;9.65;100.00
38400;BME280;24180;42.676;23.320;2022-12-07T11:42:04;94466.75;;;9.54;100.00
38400;BME280;24180;42.676;23.320;2022-12-07T11:44:35;94472.97;;;9.61;100.00
38400;BME280;24180;42.676;23.320;2022-12-07T11:47:09;94475.69;;;9.59;100.00
38400;BME280;24180;42.676;23.320;2022-12-07T11:49:43;94467.75;;;9.43;100.00
38400;BME280;24180;42.676;23.320;2022-12-07T11:54:58;94431.94;;;9.30;100.00
38400;BME280;24180;42.676;23.320;2022-12-07T11:57:38;94465.22;;;9.61;100.00
38400;BME280;24180;42.676;23.320;2022-12-07T12:00:17;94427.03;;;9.27;100.00
38400;BME280;24180;42.676;23.320;2022-12-07T12:02:57;94455.50;;;9.45;100.00
38400;BME280;24180;42.676;23.320;2022-12-07T12:05:25;94417.03;;;9.15;100.00
38400;BME280;24180;42.676;23.320;2022-12-07T12:11:08;94453.06;;;9.16;100.00
38400;BME280;24180;42.676;23.320;2022-12-07T12:19:23;94437.78;;;9.23;100.00
38400;BME280;24180;42.676;23.320;2022-12-07T12:21:56;94403.84;;;9.18;100.00
38400;BME280;24180;42.676;23.320;2022-12-07T12:24:29;94411.94;;;9.23;100.00
38400;BME280;24180;42.676;23.320;2022-12-07T12:27:06;94432.38;;;9.44;100.00
38400;BME280;24180;42.676;23.320;2022-12-07T12:29:38;94418.91;;;9.50;100.00
38400;BME280;24180;42.676;23.320;2022-12-07T12:32:15;94420.09;;;9.73;100.00
38400;BME280;24180;42.676;23.320;2022-12-07T12:45:19;94408.34;;;10.49;100.00
38400;BME280;24180;42.676;23.320;2022-12-07T12:50:30;94364.59;;;10.38;100.00
38400;BME280;24180;42.676;23.320;2022-12-07T12:53:25;94395.03;;;10.44;100.00
38400;BME280;24180;42.676;23.320;2022-12-07T12:58:33;94408.72;;;10.37;100.00
38400;BME280;24180;42.676;23.320;2022-12-07T13:01:33;94413.91;;;10.37;100.00
38400;BME280;24180;42.676;23.320;2022-12-07T13:04:03;94407.16;;;10.44;100.00
38400;BME280;24180;42.676;23.320;2022-12-07T13:06:41;94381.31;;;10.26;100.00
38400;BME280;24180;42.676;23.320;2022-12-07T13:09:19;94383.53;;;10.03;100.00
38400;BME280;24180;42.676;23.320;2022-12-07T13:11:46;94418.66;;;10.23;100.00
38400;BME280;24180;42.676;23.320;2022-12-07T13:17:08;94407.72;;;9.94;100.00
38400;BME280;24180;42.676;23.320;2022-12-07T13:25:11;94377.13;;;9.54;100.00
38400;BME280;24180;42.676;23.320;2022-12-07T13:27:40;94378.88;;;9.54;100.00
38400;BME280;24180;42.676;23.320;2022-12-07T13:30:17;94397.28;;;9.68;100.00
38400;BME280;24180;42.676;23.320;2022-12-07T13:32:43;94379.09;;;9.60;100.00
38400;BME280;24180;42.676;23.320;2022-12-07T13:35:36;94376.75;;;9.67;100.00
38400;BME280;24180;42.676;23.320;2022-12-07T13:38:05;94393.31;;;9.74;100.00
38400;BME280;24180;42.676;23.320;2022-12-07T13:40:31;94363.38;;;9.54;100.00
38400;BME280;24180;42.676;23.320;2022-12-07T13:42:58;94363.28;;;9.46;100.00
38400;BME280;24180;42.676;23.320;2022-12-07T13:45:28;94393.31;;;9.74;100.00
38400;BME280;24180;42.676;23.320;2022-12-07T13:50:57;94354.38;;;9.58;100.00
38400;BME280;24180;42.676;23.320;2022-12-07T13:53:25;94388.19;;;9.82;100.00
38400;BME280;24180;42.676;23.320;2022-12-07T13:55:56;94378.69;;;9.82;100.00
38400;BME280;24180;42.676;23.320;2022-12-07T13:58:22;94382.94;;;9.92;100.00
38400;BME280;24180;42.676;23.320;2022-12-07T14:00:47;94356.81;;;9.77;100.00
38400;BME280;24180;42.676;23.320;2022-12-07T14:05:40;94338.03;;;9.75;100.00
38400;BME280;24180;42.676;23.320;2022-12-07T14:10:54;94378.13;;;9.79;100.00
38400;BME280;24180;42.676;23.320;2022-12-07T14:13:33;94394.63;;;9.78;100.00
38400;BME280;24180;42.676;23.320;2022-12-07T14:16:00;94394.97;;;9.83;100.00
38400;BME280;24180;42.676;23.320;2022-12-07T14:18:28;94355.75;;;9.52;100.00
38400;BME280;24180;42.676;23.320;2022-12-07T14:23:37;94368.69;;;9.34;100.00
38400;BME280;24180;42.676;23.320;2022-12-07T14:26:13;94400.72;;;9.42;100.00
38400;BME280;24180;42.676;23.320;2022-12-07T14:28:40;94389.94;;;9.19;100.00
38400;BME280;24180;42.676;23.320;2022-12-07T14:31:17;94355.75;;;8.80;100.00
38400;BME280;24180;42.676;23.320;2022-12-07T14:33:43;94390.16;;;8.71;100.00
38400;BME280;24180;42.676;23.320;2022-12-07T14:36:11;94350.59;;;8.24;100.00
38400;BME280;24180;42.676;23.320;2022-12-07T14:38:37;94358.75;;;8.38;100.00
38400;BME280;24180;42.676;23.320;2022-12-07T14:41:04;94385.69;;;8.63;100.00
38400;BME280;24180;42.676;23.320;2022-12-07T14:43:48;94379.88;;;8.52;100.00
38400;BME280;24180;42.676;23.320;2022-12-07T14:46:14;94357.97;;;7.99;100.00
38400;BME280;24180;42.676;23.320;2022-12-07T14:48:39;94352.28;;;7.86;100.00
38400;BME280;24180;42.676;23.320;2022-12-07T14:51:05;94372.34;;;8.12;100.00
38400;BME280;24180;42.676;23.320;2022-12-07T14:53:37;94354.97;;;7.94;100.00
38400;BME280;24180;42.676;23.320;2022-12-07T14:56:04;94373.97;;;8.03;100.00
38400;BME280;24180;42.676;23.320;2022-12-07T14:58:30;94343.47;;;7.79;100.00
38400;BME280;24180;42.676;23.320;2022-12-07T15:00:56;94337.94;;;7.65;100.00